Terminal Aerodrome Forecast
Issued by NWS Cleveland, OH

Home | Current Version | Previous Version | Text Only | Print | Product List | Glossary On
Versions: 1 2 3 4 5 6 7 8 9 10 11 12 13 14 15
519
FTUS41 KCLE 261739
TAFCAK
TAF
KCAK 261739Z 2618/2718 21014KT P6SM SCT035 BKN200
     FM262300 20007KT P6SM SCT050 BKN100
     FM270200 22007KT P6SM VCSH BKN050
     FM270400 20007KT P6SM BKN070
     FM270900 20003KT 4SM BR BKN050
     FM271300 22006KT P6SM SCT050=

USA.gov is the U.S. government's official web portal to all federal, state and local government web resources and services.